createdAt,value
2024-05-09T00:00:10.487Z,77.77
2024-05-09T00:01:08.038Z,77.87
2024-05-09T00:02:07.967Z,77.97
2024-05-09T00:03:09.004Z,78.08
2024-05-09T00:04:08.035Z,78.17
2024-05-09T00:05:08.026Z,78.28
2024-05-09T00:06:08.167Z,78.42
2024-05-09T00:07:08.355Z,78.31
2024-05-09T00:08:07.927Z,78.42
2024-05-09T00:09:07.867Z,78.72
2024-05-09T00:10:11.813Z,78.62
2024-05-09T00:11:07.934Z,78.52
2024-05-09T00:12:08.076Z,78.52
2024-05-09T00:13:08.284Z,78.62
2024-05-09T00:14:08.339Z,78.62
2024-05-09T00:15:07.813Z,78.62
2024-05-09T00:16:07.813Z,78.62
2024-05-09T00:17:07.867Z,78.82
2024-05-09T00:18:08.445Z,78.92
2024-05-09T00:19:07.924Z,78.96
2024-05-09T00:20:14.394Z,79.57
2024-05-09T00:21:07.893Z,79.36
2024-05-09T00:22:07.808Z,79.57
2024-05-09T00:23:08.139Z,79.36
2024-05-09T00:24:07.698Z,79.16
2024-05-09T00:25:07.738Z,79.57
2024-05-09T00:26:07.756Z,79.36
2024-05-09T00:27:09.037Z,79.36
2024-05-09T00:28:07.756Z,79.16
2024-05-09T00:29:07.732Z,79.16
2024-05-09T00:30:11.547Z,79.16
2024-05-09T00:31:07.648Z,78.75
2024-05-09T00:32:07.769Z,79.16
2024-05-09T00:33:09.157Z,79.26
2024-05-09T00:34:08.075Z,79.71
2024-05-09T00:35:07.705Z,79.57
2024-05-09T00:36:07.568Z,79.71
2024-05-09T00:37:07.579Z,80.01
2024-05-09T00:38:07.664Z,79.80
2024-05-09T00:39:07.543Z,79.71
2024-05-09T00:40:15.039Z,79.67
2024-05-09T00:41:07.639Z,79.71
2024-05-09T00:42:07.542Z,79.57
2024-05-09T00:43:07.544Z,79.26
2024-05-09T00:44:07.542Z,79.36
2024-05-09T00:45:07.489Z,79.50
2024-05-09T00:46:07.534Z,79.40
2024-05-09T00:47:08.122Z,79.80
2024-05-09T00:48:09.012Z,79.71
2024-05-09T00:49:07.499Z,79.50
2024-05-09T00:50:12.648Z,79.40
2024-05-09T00:51:07.592Z,79.71
2024-05-09T00:52:07.437Z,79.50
2024-05-09T00:53:07.452Z,80.01
2024-05-09T00:54:07.405Z,79.91
2024-05-09T00:55:07.376Z,79.71
2024-05-09T00:56:07.461Z,80.31
2024-05-09T00:57:07.383Z,80.21
2024-05-09T00:58:07.364Z,80.01
2024-05-09T00:59:07.734Z,79.91
2024-05-09T01:00:12.180Z,79.71
2024-05-09T01:01:07.359Z,79.91
2024-05-09T01:02:07.382Z,79.60
2024-05-09T01:03:07.963Z,79.80
2024-05-09T01:04:07.416Z,79.80
2024-05-09T01:05:07.291Z,79.71
2024-05-09T01:06:07.338Z,79.91
2024-05-09T01:07:07.262Z,79.80
2024-05-09T01:08:07.440Z,79.80
2024-05-09T01:09:07.227Z,79.85
2024-05-09T01:10:13.911Z,80.65
2024-05-09T01:11:07.294Z,80.65
2024-05-09T01:12:07.274Z,80.45
2024-05-09T01:13:07.589Z,80.45
2024-05-09T01:14:07.230Z,80.35
2024-05-09T01:15:07.160Z,80.35
2024-05-09T01:16:07.188Z,80.35
2024-05-09T01:17:07.696Z,80.05
2024-05-09T01:18:07.445Z,80.25
2024-05-09T01:19:07.160Z,80.69
2024-05-09T01:20:10.657Z,80.90
2024-05-09T01:21:07.161Z,80.86
2024-05-09T01:22:07.158Z,80.76
2024-05-09T01:23:07.424Z,80.76
2024-05-09T01:24:07.453Z,80.59
2024-05-09T01:25:07.054Z,80.55
2024-05-09T01:26:07.056Z,80.45
2024-05-09T01:27:07.046Z,80.15
2024-05-09T01:28:07.135Z,80.05
2024-05-09T01:29:07.038Z,79.94
2024-05-09T01:30:09.461Z,79.94
2024-05-09T01:31:06.990Z,80.15
2024-05-09T01:32:07.069Z,80.39
2024-05-09T01:33:09.083Z,80.39
2024-05-09T01:34:07.018Z,80.39
2024-05-09T01:35:06.973Z,80.49
2024-05-09T01:36:06.941Z,80.79
2024-05-09T01:37:07.288Z,80.59
2024-05-09T01:38:07.082Z,80.59
2024-05-09T01:39:06.904Z,80.79
2024-05-09T01:40:11.979Z,80.90
2024-05-09T01:41:06.940Z,80.69
2024-05-09T01:42:06.892Z,80.59
2024-05-09T01:43:07.126Z,80.69
2024-05-09T01:44:07.182Z,80.90
2024-05-09T01:45:06.828Z,81.44
2024-05-09T01:46:06.871Z,81.64
2024-05-09T01:47:06.923Z,81.74
2024-05-09T01:48:07.167Z,81.95
2024-05-09T01:49:07.017Z,82.05
2024-05-09T01:50:09.145Z,82.29
2024-05-09T01:51:06.849Z,82.59
2024-05-09T01:52:06.801Z,82.70
2024-05-09T01:53:06.846Z,82.39
2024-05-09T01:54:06.750Z,82.35
2024-05-09T01:55:07.050Z,81.85
2024-05-09T01:56:07.102Z,81.54
2024-05-09T01:57:06.723Z,81.34
2024-05-09T01:58:06.739Z,81.04
2024-05-09T01:59:06.844Z,80.83
2024-05-09T02:00:07.941Z,81.64
2024-05-09T02:01:06.697Z,81.44
2024-05-09T02:02:06.885Z,81.13
2024-05-09T02:03:06.880Z,80.93
2024-05-09T02:04:07.050Z,80.83
2024-05-09T02:05:06.923Z,80.73
2024-05-09T02:07:06.646Z,80.73
2024-05-09T02:08:09.618Z,80.73
2024-05-09T02:09:06.576Z,80.73
2024-05-09T02:10:10.971Z,80.93
2024-05-09T02:11:06.647Z,80.73
2024-05-09T02:12:06.764Z,80.83
2024-05-09T02:13:06.544Z,80.73
2024-05-09T02:14:06.577Z,80.63
2024-05-09T02:15:07.966Z,80.63
2024-05-09T02:16:06.538Z,80.83
2024-05-09T02:17:06.569Z,80.83
2024-05-09T02:18:06.729Z,80.77
2024-05-09T02:19:06.570Z,80.97
2024-05-09T02:20:06.639Z,81.07
2024-05-09T02:21:06.573Z,81.27
2024-05-09T02:22:06.823Z,81.07
2024-05-09T02:23:07.094Z,81.07
2024-05-09T02:24:06.428Z,80.97
2024-05-09T02:25:06.417Z,81.18
2024-05-09T02:26:06.453Z,80.97
2024-05-09T02:27:06.489Z,80.97
2024-05-09T02:28:06.418Z,81.07
2024-05-09T02:29:06.884Z,81.07
2024-05-09T02:30:15.144Z,81.07
2024-05-09T02:31:06.389Z,81.07
2024-05-09T02:32:06.391Z,81.07
2024-05-09T02:33:06.921Z,80.97
2024-05-09T02:34:06.475Z,80.87
2024-05-09T02:35:06.346Z,81.27
2024-05-09T02:36:06.699Z,81.07
2024-05-09T02:37:06.322Z,80.97
2024-05-09T02:38:06.393Z,80.87
2024-05-09T02:39:06.265Z,81.07
2024-05-09T02:40:09.119Z,80.87
2024-05-09T02:41:06.280Z,81.21
2024-05-09T02:42:06.238Z,81.31
2024-05-09T02:43:06.935Z,81.31
2024-05-09T02:44:06.251Z,81.21
2024-05-09T02:45:06.229Z,81.11
2024-05-09T02:46:06.234Z,81.21
2024-05-09T02:47:06.486Z,81.31
2024-05-09T02:48:06.504Z,81.01
2024-05-09T02:49:06.316Z,81.01
2024-05-09T02:50:08.162Z,80.91
2024-05-09T02:51:06.282Z,80.80
2024-05-09T02:52:06.190Z,80.91
2024-05-09T02:53:06.348Z,80.60
2024-05-09T02:54:06.107Z,80.80
2024-05-09T02:55:06.095Z,80.71
2024-05-09T02:56:06.106Z,80.80
2024-05-09T02:57:06.477Z,80.80
2024-05-09T02:58:06.099Z,80.80
2024-05-09T02:59:06.073Z,81.11
2024-05-09T03:00:09.706Z,81.31
2024-05-09T03:01:06.143Z,81.52
2024-05-09T03:02:06.158Z,81.41
2024-05-09T03:03:06.464Z,81.41
2024-05-09T03:04:06.279Z,81.52
2024-05-09T03:05:06.095Z,81.52
2024-05-09T03:06:06.001Z,81.21
2024-05-09T03:07:05.971Z,81.21
2024-05-09T03:08:06.038Z,81.15
2024-05-09T03:09:05.944Z,81.45
2024-05-09T03:10:12.203Z,81.35
2024-05-09T03:11:06.055Z,81.35
2024-05-09T03:12:06.011Z,81.45
2024-05-09T03:16:28.680Z,80.71
2024-05-09T03:17:29.759Z,80.91
2024-05-09T03:18:29.725Z,81.01
2024-05-09T03:19:29.731Z,80.91
2024-05-09T03:20:34.213Z,80.94
2024-05-09T03:21:29.598Z,80.84
2024-05-09T03:22:29.842Z,80.84
2024-05-09T03:23:29.618Z,80.74
2024-05-09T03:24:29.538Z,80.74
2024-05-09T03:25:29.530Z,80.94
2024-05-09T03:26:29.621Z,80.84
2024-05-09T03:27:29.534Z,80.94
2024-05-09T03:28:29.502Z,80.84
2024-05-09T03:29:29.606Z,80.84
2024-05-09T03:30:38.080Z,80.84
2024-05-09T03:31:29.473Z,80.94
2024-05-09T03:32:29.562Z,81.05
2024-05-09T03:33:29.723Z,81.25
2024-05-09T03:34:29.710Z,81.15
2024-05-09T03:35:29.517Z,81.45
2024-05-09T03:36:29.411Z,81.45
2024-05-09T03:37:29.388Z,81.25
2024-05-09T03:38:29.437Z,81.15
2024-05-09T03:39:29.421Z,80.94
2024-05-09T03:40:31.057Z,81.09
2024-05-09T03:41:29.776Z,80.98
2024-05-09T03:42:29.368Z,81.09
2024-05-09T03:43:29.331Z,81.09
2024-05-09T03:44:29.401Z,81.09
2024-05-09T03:45:29.374Z,80.98
2024-05-09T03:46:29.325Z,81.09
2024-05-09T03:47:29.420Z,80.98
2024-05-09T03:48:29.741Z,81.09
2024-05-09T03:49:29.432Z,80.98
2024-05-09T03:50:33.956Z,81.09
2024-05-09T03:51:29.298Z,80.98
2024-05-09T03:52:29.274Z,81.12
2024-05-09T03:53:29.332Z,81.29
2024-05-09T03:54:29.215Z,81.49
2024-05-09T03:55:29.509Z,81.19
2024-05-09T03:56:29.272Z,81.29
2024-05-09T03:57:29.223Z,81.29
2024-05-09T03:58:29.168Z,81.19
2024-05-09T03:59:29.209Z,81.19
2024-05-09T04:00:36.860Z,81.49
2024-05-09T04:01:29.223Z,81.29
2024-05-09T04:02:29.470Z,81.09
2024-05-09T04:03:29.293Z,81.39
2024-05-09T04:04:29.208Z,81.39
2024-05-09T04:05:29.206Z,81.39
2024-05-09T04:06:29.094Z,81.39
2024-05-09T04:07:29.080Z,81.39
2024-05-09T04:08:29.083Z,81.29
2024-05-09T04:09:29.393Z,81.29
2024-05-09T04:10:33.337Z,81.39
2024-05-09T04:11:29.120Z,81.19
2024-05-09T04:12:29.074Z,81.19
2024-05-09T04:13:29.022Z,81.19
2024-05-09T04:14:29.098Z,81.09
2024-05-09T04:15:29.076Z,81.19
2024-05-09T04:16:29.257Z,81.09
2024-05-09T04:17:29.157Z,81.09
2024-05-09T04:18:29.094Z,81.29
2024-05-09T04:19:29.075Z,81.19
2024-05-09T04:20:36.863Z,81.09
2024-05-09T04:21:28.980Z,81.09
2024-05-09T04:22:28.928Z,80.98
2024-05-09T04:23:29.203Z,81.09
2024-05-09T04:24:28.936Z,81.09
2024-05-09T04:25:28.889Z,80.98
2024-05-09T04:26:28.973Z,81.09
2024-05-09T04:27:28.927Z,80.98
2024-05-09T04:28:28.854Z,80.94
2024-05-09T04:29:28.874Z,80.84
2024-05-09T04:30:36.851Z,80.78
2024-05-09T04:31:28.862Z,80.84
2024-05-09T04:32:28.912Z,80.84
2024-05-09T04:33:28.961Z,80.64
2024-05-09T04:34:28.881Z,80.94
2024-05-09T04:35:28.835Z,80.74
2024-05-09T04:36:28.778Z,80.88
2024-05-09T04:37:29.031Z,80.84
2024-05-09T04:38:28.780Z,80.84
2024-05-09T04:39:28.784Z,80.74
2024-05-09T04:40:33.927Z,80.74
2024-05-09T04:41:28.819Z,80.64
2024-05-09T04:42:28.707Z,80.84
2024-05-09T04:43:28.707Z,80.84
2024-05-09T04:44:28.974Z,80.74
2024-05-09T04:45:28.707Z,80.64
2024-05-09T04:46:28.661Z,80.64
2024-05-09T04:47:28.765Z,80.64
2024-05-09T04:48:28.779Z,80.71
2024-05-09T04:49:28.754Z,80.60
2024-05-09T04:50:36.162Z,80.60
2024-05-09T04:51:28.647Z,80.50
2024-05-09T04:52:28.593Z,80.50
2024-05-09T04:53:28.602Z,80.50
2024-05-09T04:54:35.805Z,80.50
2024-05-09T04:55:28.574Z,80.50
2024-05-09T04:56:28.634Z,80.40
2024-05-09T04:57:28.942Z,80.36
2024-05-09T04:58:28.542Z,80.16
2024-05-09T04:59:28.596Z,80.36
2024-05-09T05:00:35.305Z,80.16
2024-05-09T05:01:28.534Z,80.46
2024-05-09T05:02:28.565Z,80.36
2024-05-09T05:03:28.678Z,80.26
2024-05-09T05:04:28.763Z,80.12
2024-05-09T05:05:28.500Z,80.22
2024-05-09T05:06:28.446Z,80.22
2024-05-09T05:07:28.451Z,80.12
2024-05-09T05:08:28.500Z,80.02
2024-05-09T05:09:28.457Z,79.92
2024-05-09T05:10:34.014Z,79.88
2024-05-09T05:11:28.554Z,79.78
2024-05-09T05:12:28.467Z,79.98
2024-05-09T05:13:28.381Z,79.78
2024-05-09T05:14:28.434Z,79.78
2024-05-09T05:15:28.390Z,79.58
2024-05-09T05:16:28.342Z,79.54
2024-05-09T05:17:28.861Z,79.54
2024-05-09T05:18:28.659Z,79.44
2024-05-09T05:19:28.606Z,79.24
2024-05-09T05:20:33.505Z,78.63
2024-05-09T05:21:28.418Z,78.53
2024-05-09T05:22:28.282Z,78.42
2024-05-09T05:23:28.389Z,78.39
2024-05-09T05:24:28.264Z,78.49
2024-05-09T05:25:28.254Z,78.08
2024-05-09T05:26:28.301Z,78.08
2024-05-09T05:27:28.275Z,78.05
2024-05-09T05:28:28.228Z,77.44
2024-05-09T05:29:28.538Z,77.44
2024-05-09T05:30:32.901Z,77.34
2024-05-09T05:31:28.242Z,77.10
2024-05-09T05:32:28.403Z,77.10
2024-05-09T05:33:28.477Z,77.10
2024-05-09T05:34:28.153Z,76.86
2024-05-09T05:35:28.349Z,76.19
2024-05-09T05:36:28.133Z,76.19
2024-05-09T05:37:28.137Z,76.26
2024-05-09T05:38:28.808Z,75.85
2024-05-09T05:39:28.142Z,75.95
2024-05-09T05:40:35.646Z,75.71
2024-05-09T05:41:28.164Z,75.71
2024-05-09T05:42:28.085Z,75.21
2024-05-09T05:43:28.103Z,75.31
2024-05-09T05:44:28.086Z,74.90
2024-05-09T05:45:28.085Z,74.70
2024-05-09T05:46:28.028Z,74.80
2024-05-09T05:47:28.514Z,74.57
2024-05-09T05:48:28.077Z,73.86
2024-05-09T05:49:28.084Z,73.66
2024-05-09T05:50:35.345Z,73.75
2024-05-09T05:51:28.043Z,73.25
2024-05-09T05:52:27.981Z,73.25
2024-05-09T05:53:28.022Z,73.25
2024-05-09T05:54:28.208Z,72.85
2024-05-09T05:55:27.942Z,73.05
2024-05-09T05:56:28.027Z,72.51
2024-05-09T05:57:27.974Z,72.00
2024-05-09T05:58:27.896Z,71.77
2024-05-09T05:59:27.926Z,72.07
2024-05-09T06:00:34.466Z,72.27
2024-05-09T06:01:28.009Z,71.94
2024-05-09T06:02:27.935Z,71.03
2024-05-09T06:03:27.931Z,70.19
2024-05-09T06:04:27.876Z,68.91
2024-05-09T06:05:27.941Z,67.11
2024-05-09T06:06:27.844Z,65.41
2024-05-09T06:07:28.106Z,63.40
2024-05-09T06:08:30.295Z,60.84
2024-05-09T06:09:27.828Z,59.45
2024-05-09T06:10:37.173Z,57.59
2024-05-09T06:11:27.871Z,56.46
2024-05-09T06:12:27.834Z,55.41
2024-05-09T06:13:27.791Z,54.82
2024-05-09T06:14:27.854Z,53.86
2024-05-09T06:15:27.761Z,53.11
2024-05-09T06:16:27.714Z,51.42
2024-05-09T06:17:27.791Z,52.51
2024-05-09T06:18:27.926Z,51.03
2024-05-09T06:19:28.130Z,51.40
2024-05-09T06:20:35.181Z,49.58
2024-05-09T06:21:27.728Z,49.10
2024-05-09T06:22:27.646Z,51.12
2024-05-09T06:23:27.717Z,50.73
2024-05-09T06:24:27.636Z,50.62
2024-05-09T06:25:27.634Z,51.95
2024-05-09T06:26:27.643Z,52.22
2024-05-09T06:27:27.637Z,51.82
2024-05-09T06:28:27.609Z,50.90
2024-05-09T06:29:27.712Z,51.22
2024-05-09T06:30:36.621Z,50.50
2024-05-09T06:31:27.587Z,49.78
2024-05-09T06:32:27.707Z,49.85
2024-05-09T06:33:28.058Z,49.90
2024-05-09T06:34:27.647Z,49.78
2024-05-09T06:35:27.603Z,49.46
2024-05-09T06:36:27.501Z,49.55
2024-05-09T06:37:27.779Z,49.68
2024-05-09T06:38:27.699Z,48.74
2024-05-09T06:39:27.513Z,48.54
2024-05-09T06:40:36.226Z,47.89
2024-05-09T06:41:27.560Z,46.66
2024-05-09T06:42:27.472Z,46.71
2024-05-09T06:43:27.456Z,44.90
2024-05-09T06:44:27.892Z,44.90
2024-05-09T06:45:27.473Z,44.90
2024-05-09T06:46:27.405Z,45.38
2024-05-09T06:47:27.509Z,45.50
2024-05-09T06:48:27.650Z,44.51
2024-05-09T06:49:27.463Z,44.90
2024-05-09T06:50:28.453Z,43.48
2024-05-09T06:51:27.410Z,43.55
2024-05-09T06:52:27.416Z,43.12
2024-05-09T06:53:27.404Z,42.84
2024-05-09T06:54:27.396Z,42.84
2024-05-09T06:55:27.319Z,42.62
2024-05-09T06:56:27.407Z,41.71
2024-05-09T06:57:27.645Z,42.13
2024-05-09T06:58:27.294Z,42.25
2024-05-09T06:59:27.355Z,41.97
2024-05-09T07:00:35.319Z,42.57
2024-05-09T07:01:27.319Z,43.65
2024-05-09T07:02:27.344Z,44.24
2024-05-09T07:03:27.346Z,43.46
2024-05-09T07:04:27.675Z,43.41
2024-05-09T07:05:27.272Z,42.99
2024-05-09T07:06:27.223Z,41.59
2024-05-09T07:07:27.209Z,41.28
2024-05-09T07:08:27.241Z,40.56
2024-05-09T07:09:27.224Z,41.79
2024-05-09T07:10:33.037Z,41.10
2024-05-09T07:11:27.338Z,41.71
2024-05-09T07:12:27.211Z,43.47
2024-05-09T07:13:27.154Z,42.19
2024-05-09T07:14:27.194Z,42.62
2024-05-09T07:15:27.218Z,43.69
2024-05-09T07:16:27.121Z,42.50
2024-05-09T07:17:27.571Z,43.57
2024-05-09T07:18:27.370Z,41.87
2024-05-09T07:19:27.236Z,42.22
2024-05-09T07:20:34.119Z,43.02
2024-05-09T07:21:27.222Z,43.59
2024-05-09T07:22:27.067Z,43.71
2024-05-09T07:23:27.144Z,43.80
2024-05-09T07:24:27.062Z,43.10
2024-05-09T07:25:27.111Z,42.52
2024-05-09T07:26:27.154Z,43.12
2024-05-09T07:27:27.065Z,42.94
2024-05-09T07:28:27.055Z,42.80
2024-05-09T07:29:27.372Z,44.33
2024-05-09T07:30:33.043Z,44.83
2024-05-09T07:31:27.010Z,45.29
2024-05-09T07:32:27.296Z,46.72
2024-05-09T07:33:27.323Z,46.88
2024-05-09T07:34:27.090Z,45.62
2024-05-09T07:35:27.262Z,45.30
2024-05-09T07:36:27.267Z,44.76
2024-05-09T07:37:26.971Z,42.74
2024-05-09T07:38:27.022Z,41.59
2024-05-09T07:39:26.994Z,41.87
2024-05-09T07:40:34.787Z,39.76
2024-05-09T07:41:26.997Z,39.44
2024-05-09T07:42:27.025Z,39.20
2024-05-09T07:43:27.210Z,36.35
2024-05-09T07:44:26.974Z,36.27
2024-05-09T07:45:44.922Z,37.51
2024-05-09T07:50:00.659Z,37.90
2024-05-09T07:53:21.065Z,39.23
2024-05-09T07:53:47.473Z,36.79
2024-05-09T07:53:59.554Z,35.99
2024-05-09T07:54:54.355Z,34.80
2024-05-09T07:55:54.552Z,35.10
2024-05-09T07:56:54.775Z,35.71
2024-05-09T07:57:54.145Z,35.51
2024-05-09T07:58:54.623Z,35.99
2024-05-09T07:59:54.131Z,35.57
2024-05-09T08:00:54.324Z,35.26
2024-05-09T08:01:54.182Z,37.30
2024-05-09T08:02:54.150Z,36.01
2024-05-09T08:03:54.533Z,35.62
2024-05-09T08:04:54.171Z,34.28
2024-05-09T08:05:54.179Z,35.20
2024-05-09T08:06:54.084Z,36.47
2024-05-09T08:07:54.463Z,35.49
2024-05-09T08:08:54.128Z,37.24
2024-05-09T08:09:54.127Z,36.46
2024-05-09T08:10:54.172Z,36.90
2024-05-09T08:11:54.082Z,36.05
2024-05-09T08:12:54.135Z,36.27
2024-05-09T08:13:53.973Z,36.65
2024-05-09T08:14:54.281Z,37.71
2024-05-09T08:15:54.053Z,36.43
2024-05-09T08:16:54.006Z,36.33
2024-05-09T08:17:53.969Z,36.94
2024-05-09T08:18:54.094Z,37.15
2024-05-09T08:19:53.902Z,36.48
2024-05-09T08:20:54.044Z,38.65
2024-05-09T08:21:54.169Z,37.87
2024-05-09T08:22:53.956Z,39.09
2024-05-09T08:23:53.881Z,39.17
2024-05-09T08:24:53.901Z,40.11
2024-05-09T08:25:53.836Z,38.49
2024-05-09T08:26:53.963Z,36.63
2024-05-09T08:27:53.855Z,37.73
2024-05-09T08:28:54.138Z,38.93
2024-05-09T08:29:53.856Z,37.04
2024-05-09T08:30:54.070Z,37.90
2024-05-09T08:31:53.837Z,39.43
2024-05-09T08:32:54.033Z,38.98
2024-05-09T08:33:53.887Z,40.84
2024-05-09T08:34:53.922Z,40.48
2024-05-09T08:35:54.070Z,41.36
2024-05-09T08:36:55.057Z,40.94
2024-05-09T08:37:53.876Z,39.03
2024-05-09T08:38:53.879Z,39.04
2024-05-09T08:39:53.745Z,38.55
2024-05-09T08:40:53.737Z,39.12
2024-05-09T08:41:53.667Z,39.30
2024-05-09T08:42:54.073Z,38.90
2024-05-09T08:43:53.675Z,39.83
2024-05-09T08:44:53.698Z,39.72
2024-05-09T08:45:53.717Z,39.79
2024-05-09T08:46:53.676Z,39.95
2024-05-09T08:47:53.767Z,37.49
2024-05-09T08:48:53.874Z,37.39
2024-05-09T08:49:54.031Z,37.17
2024-05-09T08:50:53.901Z,37.55
2024-05-09T08:51:53.730Z,37.66
2024-05-09T08:52:53.600Z,38.57
2024-05-09T08:53:53.559Z,39.38
2024-05-09T08:54:53.634Z,39.28
2024-05-09T08:55:53.632Z,41.39
2024-05-09T08:56:53.620Z,40.48
2024-05-09T08:57:53.602Z,39.52
2024-05-09T08:58:53.512Z,40.62
2024-05-09T08:59:53.626Z,41.16
2024-05-09T09:00:53.706Z,40.96
2024-05-09T09:01:53.668Z,42.22
2024-05-09T09:02:53.822Z,39.43
2024-05-09T09:03:53.838Z,39.11
2024-05-09T09:04:53.665Z,39.18
2024-05-09T09:05:53.564Z,38.57
2024-05-09T09:06:56.321Z,39.30
2024-05-09T09:07:53.481Z,40.72
2024-05-09T09:08:53.615Z,40.13
2024-05-09T09:09:53.514Z,40.64
2024-05-09T09:10:53.439Z,41.83
2024-05-09T09:11:53.506Z,40.55
2024-05-09T09:12:53.415Z,42.50
2024-05-09T09:13:53.462Z,41.30
2024-05-09T09:14:53.441Z,41.39
2024-05-09T09:15:53.439Z,40.48
2024-05-09T09:16:53.406Z,41.95
2024-05-09T09:17:53.473Z,40.15
2024-05-09T09:18:53.611Z,40.31
2024-05-09T09:19:53.458Z,38.93
2024-05-09T09:20:53.493Z,38.14
2024-05-09T09:21:53.618Z,36.55
2024-05-09T09:22:53.369Z,37.88
2024-05-09T09:23:53.305Z,37.70
2024-05-09T09:24:53.331Z,38.10
2024-05-09T09:25:53.322Z,38.29
2024-05-09T09:26:53.401Z,37.09
2024-05-09T09:27:53.286Z,36.99
2024-05-09T09:28:53.286Z,38.26
2024-05-09T09:29:53.202Z,37.87
2024-05-09T09:30:53.271Z,38.16
2024-05-09T09:31:53.314Z,39.20
2024-05-09T09:32:53.349Z,40.90
2024-05-09T09:33:53.767Z,40.56
2024-05-09T09:34:53.238Z,39.97
2024-05-09T09:35:53.277Z,39.95
2024-05-09T09:36:53.230Z,40.66
2024-05-09T09:37:53.197Z,40.69
2024-05-09T09:38:53.236Z,39.68
2024-05-09T09:39:53.115Z,38.35
2024-05-09T09:40:53.571Z,38.04
2024-05-09T09:41:53.088Z,36.55
2024-05-09T09:42:53.130Z,36.96
2024-05-09T09:43:53.203Z,37.14
2024-05-09T09:45:02.102Z,35.76
2024-05-09T09:45:53.746Z,36.53
2024-05-09T09:46:53.163Z,35.61
2024-05-09T09:47:53.624Z,34.43
2024-05-09T09:48:53.164Z,35.71
2024-05-09T09:49:53.134Z,34.51
2024-05-09T09:50:53.089Z,34.30
2024-05-09T09:51:53.065Z,34.99
2024-05-09T09:52:53.133Z,35.83
2024-05-09T09:53:53.028Z,37.46
2024-05-09T09:54:53.327Z,33.74
2024-05-09T09:55:52.966Z,33.84
2024-05-09T09:56:53.058Z,32.76
2024-05-09T09:57:53.458Z,32.87
2024-05-09T09:58:52.949Z,32.68
2024-05-09T09:59:53.022Z,33.75
2024-05-09T10:00:53.083Z,35.03
2024-05-09T10:01:55.441Z,34.28
2024-05-09T10:02:53.178Z,34.18
2024-05-09T10:03:53.175Z,33.49
2024-05-09T10:04:53.383Z,35.24
2024-05-09T10:05:53.054Z,33.98
2024-05-09T10:06:52.973Z,36.18
2024-05-09T10:07:52.916Z,36.47
2024-05-09T10:08:53.161Z,36.57
2024-05-09T10:09:53.145Z,34.90
2024-05-09T10:10:53.089Z,38.36
2024-05-09T10:11:59.682Z,37.16
2024-05-09T10:12:52.981Z,36.97
2024-05-09T10:13:52.893Z,37.97
2024-05-09T10:14:52.833Z,36.61
2024-05-09T10:15:53.756Z,36.51
2024-05-09T10:16:52.777Z,36.99
2024-05-09T10:17:52.987Z,37.91
2024-05-09T10:18:52.999Z,36.43
2024-05-09T10:19:52.886Z,36.11
2024-05-09T10:20:52.805Z,37.08
2024-05-09T10:21:52.842Z,36.87
2024-05-09T10:22:53.015Z,35.97
2024-05-09T10:23:53.035Z,36.18
2024-05-09T10:24:52.739Z,35.13
2024-05-09T10:25:53.436Z,36.38
2024-05-09T10:26:52.753Z,39.52
2024-05-09T10:27:52.846Z,39.83
2024-05-09T10:28:52.728Z,41.52
2024-05-09T10:29:52.950Z,40.64
2024-05-09T10:30:52.652Z,39.43
2024-05-09T10:31:52.697Z,38.33
2024-05-09T10:32:52.764Z,37.92
2024-05-09T10:33:53.336Z,38.90
2024-05-09T10:34:52.654Z,37.90
2024-05-09T10:35:52.599Z,37.07
2024-05-09T10:36:52.953Z,38.42
2024-05-09T10:37:52.608Z,36.63
2024-05-09T10:38:52.640Z,36.74
2024-05-09T10:39:52.602Z,36.36
2024-05-09T10:40:52.612Z,37.51
2024-05-09T10:41:52.581Z,37.18
2024-05-09T10:42:52.743Z,36.30
2024-05-09T10:43:53.854Z,35.82
2024-05-09T10:44:52.470Z,35.10
2024-05-09T10:45:52.484Z,35.77
2024-05-09T10:46:52.510Z,34.85
2024-05-09T10:47:52.753Z,33.97
2024-05-09T10:48:52.655Z,35.87
2024-05-09T10:49:52.680Z,35.11
2024-05-09T10:50:52.847Z,35.13
2024-05-09T10:51:52.465Z,35.43
2024-05-09T10:52:52.433Z,35.76
2024-05-09T10:53:52.551Z,36.55
2024-05-09T10:54:52.379Z,38.79
2024-05-09T10:55:52.397Z,38.18
2024-05-09T10:56:52.366Z,35.82
2024-05-09T10:57:52.776Z,36.72
2024-05-09T10:58:52.340Z,36.84
2024-05-09T10:59:52.303Z,36.76
2024-05-09T11:00:52.442Z,36.58
2024-05-09T11:01:52.536Z,37.49
2024-05-09T11:02:52.512Z,38.67
2024-05-09T11:03:52.594Z,38.04
2024-05-09T11:04:52.660Z,38.10
2024-05-09T11:05:52.453Z,35.90
2024-05-09T11:06:52.313Z,36.08
2024-05-09T11:07:52.383Z,34.95
2024-05-09T11:08:52.396Z,35.88
2024-05-09T11:09:52.339Z,35.04
2024-05-09T11:10:52.357Z,33.77
2024-05-09T11:11:52.665Z,33.67
2024-05-09T11:12:52.376Z,33.05
2024-05-09T11:13:52.228Z,34.08
2024-05-09T11:14:53.024Z,34.44
2024-05-09T11:15:52.225Z,35.58
2024-05-09T11:16:52.255Z,36.68
2024-05-09T11:17:52.308Z,37.57
2024-05-09T11:18:52.768Z,37.49
2024-05-09T11:19:52.313Z,38.47
2024-05-09T11:20:52.507Z,38.79
2024-05-09T11:21:52.113Z,38.12
2024-05-09T11:22:52.168Z,38.82
2024-05-09T11:23:52.845Z,39.36
2024-05-09T11:24:52.203Z,41.16
2024-05-09T11:25:52.372Z,40.64
2024-05-09T11:26:52.887Z,40.50
2024-05-09T11:27:52.102Z,39.46
2024-05-09T11:28:52.073Z,37.93
2024-05-09T11:29:52.844Z,36.65
2024-05-09T11:30:53.010Z,36.22
2024-05-09T11:31:52.119Z,36.10
2024-05-09T11:32:52.412Z,36.30
2024-05-09T11:33:52.142Z,35.67
2024-05-09T11:34:51.921Z,37.18
2024-05-09T11:35:51.969Z,35.94
2024-05-09T11:36:52.067Z,36.35
2024-05-09T11:37:51.980Z,37.15
2024-05-09T11:38:51.950Z,36.60
2024-05-09T11:39:52.185Z,38.20
2024-05-09T11:40:52.833Z,37.43
2024-05-09T11:41:51.980Z,37.74
2024-05-09T11:42:53.413Z,39.06
2024-05-09T11:43:52.039Z,39.85
2024-05-09T11:44:52.357Z,40.84
2024-05-09T11:45:51.993Z,40.76
2024-05-09T11:46:52.438Z,39.87
2024-05-09T11:47:52.046Z,38.86
2024-05-09T11:48:52.073Z,39.03
2024-05-09T11:49:51.844Z,38.51
2024-05-09T11:50:52.392Z,37.80
2024-05-09T11:51:52.023Z,36.50
2024-05-09T11:52:51.824Z,35.36
2024-05-09T11:53:52.057Z,35.41
2024-05-09T11:54:51.806Z,34.97
2024-05-09T11:55:51.813Z,32.31
2024-05-09T11:56:51.879Z,31.89
2024-05-09T11:57:51.799Z,33.29
2024-05-09T11:58:51.741Z,33.08
2024-05-09T11:59:51.805Z,32.27
2024-05-09T12:00:52.176Z,31.54
2024-05-09T12:01:51.789Z,30.94
2024-05-09T12:02:51.816Z,31.62
2024-05-09T12:03:51.945Z,33.26
2024-05-09T12:04:51.889Z,31.63
2024-05-09T12:05:51.906Z,30.55
2024-05-09T12:06:51.712Z,31.96
2024-05-09T12:07:51.920Z,33.14
2024-05-09T12:08:52.642Z,34.31
2024-05-09T12:09:51.625Z,33.34
2024-05-09T12:10:51.895Z,31.87
2024-05-09T12:11:51.679Z,33.22
2024-05-09T12:12:51.639Z,32.23
2024-05-09T12:13:51.622Z,29.75
2024-05-09T12:14:51.985Z,29.16
2024-05-09T12:15:51.626Z,32.10
2024-05-09T12:16:51.520Z,29.35
2024-05-09T12:17:51.702Z,29.63
2024-05-09T12:18:52.613Z,29.22
2024-05-09T12:19:51.610Z,28.43
2024-05-09T12:20:51.818Z,27.33
2024-05-09T12:21:52.055Z,27.44
2024-05-09T12:22:51.513Z,29.11
2024-05-09T12:23:51.581Z,29.14
2024-05-09T12:24:51.601Z,29.88
2024-05-09T12:25:51.505Z,30.01
2024-05-09T12:26:51.496Z,31.01
2024-05-09T12:27:51.510Z,32.12
2024-05-09T12:28:51.808Z,33.54
2024-05-09T12:29:51.458Z,34.36
2024-05-09T12:30:51.444Z,36.29
2024-05-09T12:31:51.455Z,36.98
2024-05-09T12:32:51.556Z,37.55
2024-05-09T12:33:51.542Z,36.35
2024-05-09T12:34:51.420Z,37.91
2024-05-09T12:35:52.233Z,33.82
2024-05-09T12:36:51.400Z,35.08
2024-05-09T12:37:51.309Z,35.38
2024-05-09T12:38:51.386Z,36.07
2024-05-09T12:39:51.394Z,35.36
2024-05-09T12:40:51.443Z,34.77
2024-05-09T12:41:51.235Z,36.13
2024-05-09T12:42:51.555Z,33.67
2024-05-09T12:43:51.345Z,33.58
2024-05-09T12:44:51.274Z,34.18
2024-05-09T12:45:51.233Z,33.69
2024-05-09T12:46:51.254Z,34.67
2024-05-09T12:47:51.291Z,34.51
2024-05-09T12:48:51.365Z,35.74
2024-05-09T12:49:51.554Z,35.38
2024-05-09T12:50:51.309Z,35.40
2024-05-09T12:51:51.248Z,36.80
2024-05-09T12:52:51.159Z,38.79
2024-05-09T12:53:51.202Z,38.08
2024-05-09T12:54:51.187Z,37.57
2024-05-09T12:55:56.870Z,36.45
2024-05-09T12:56:51.186Z,37.65
2024-05-09T12:57:51.308Z,36.94
2024-05-09T12:58:51.069Z,36.82
2024-05-09T12:59:51.177Z,36.04
2024-05-09T13:00:51.239Z,36.33